createdAt,value
2018-03-24T00:00:10.470Z,96621.23
2018-03-24T00:00:42.160Z,96615.86
2018-03-24T00:01:13.801Z,96622.63
2018-03-24T00:01:45.436Z,96615.89
2018-03-24T00:02:17.067Z,96617.61
2018-03-24T00:02:48.695Z,96620.49
2018-03-24T00:03:20.326Z,96620.49
2018-03-24T00:03:51.968Z,96618.48
2018-03-24T00:04:23.595Z,96613.46
2018-03-24T00:04:55.218Z,96617.37
2018-03-24T00:05:26.849Z,96615.28
2018-03-24T00:05:58.477Z,96616.16
2018-03-24T00:06:30.102Z,96608.83
2018-03-24T00:07:01.731Z,96610.05
2018-03-24T00:07:33.363Z,96610.62
2018-03-24T00:08:04.986Z,96608.87
2018-03-24T00:08:36.618Z,96615.72
2018-03-24T00:09:08.242Z,96609.77
2018-03-24T00:09:39.866Z,96606.27
2018-03-24T00:10:11.497Z,96610.20
2018-03-24T00:10:43.121Z,96612.75
2018-03-24T00:11:14.810Z,96604.77
2018-03-24T00:11:46.434Z,96616.53
2018-03-24T00:12:18.070Z,96606.45
2018-03-24T00:12:49.698Z,96610.59
2018-03-24T00:13:21.322Z,96607.83
2018-03-24T00:13:52.954Z,96614.26
2018-03-24T00:14:24.586Z,96612.14
2018-03-24T00:14:56.210Z,96607.95
2018-03-24T00:15:27.858Z,96609.67
2018-03-24T00:15:59.481Z,96616.86
2018-03-24T00:16:31.184Z,96613.81
2018-03-24T00:17:02.819Z,96618.52
2018-03-24T00:17:34.442Z,96616.03
2018-03-24T00:18:06.075Z,96614.44
2018-03-24T00:18:37.698Z,96613.58
2018-03-24T00:19:09.327Z,96612.03
2018-03-24T00:19:40.960Z,96618.85
2018-03-24T00:20:12.590Z,96619.27
2018-03-24T00:20:44.226Z,96612.89
2018-03-24T00:21:15.851Z,96604.92
2018-03-24T00:21:47.547Z,96610.84
2018-03-24T00:22:19.178Z,96613.41
2018-03-24T00:22:50.810Z,96610.56
2018-03-24T00:23:22.440Z,96606.00
2018-03-24T00:23:54.070Z,96608.63
2018-03-24T00:24:25.694Z,96603.95
2018-03-24T00:24:57.334Z,96608.27
2018-03-24T00:25:28.962Z,96610.06
2018-03-24T00:26:00.585Z,96611.45
2018-03-24T00:26:32.211Z,96603.48
2018-03-24T00:27:03.920Z,96610.23
2018-03-24T00:27:35.546Z,96608.14
2018-03-24T00:28:07.173Z,96606.03
2018-03-24T00:28:38.797Z,96607.84
2018-03-24T00:29:10.498Z,96605.79
2018-03-24T00:29:42.122Z,96602.82
2018-03-24T00:30:13.750Z,96602.94
2018-03-24T00:30:45.383Z,96606.86
2018-03-24T00:31:17.007Z,96607.38
2018-03-24T00:31:48.643Z,96614.66
2018-03-24T00:32:20.343Z,96608.38
2018-03-24T00:32:51.974Z,96603.36
2018-03-24T00:33:23.608Z,96607.70
2018-03-24T00:33:55.243Z,96613.26
2018-03-24T00:34:26.866Z,96606.88
2018-03-24T00:34:58.495Z,96602.72
2018-03-24T00:35:30.129Z,96605.70
2018-03-24T00:36:01.763Z,96605.39
2018-03-24T00:36:33.392Z,96607.94
2018-03-24T00:37:05.022Z,96612.22
2018-03-24T00:37:36.710Z,96609.67
2018-03-24T00:38:08.335Z,96610.11
2018-03-24T00:38:39.967Z,96608.39
2018-03-24T00:39:11.590Z,96608.94
2018-03-24T00:39:43.214Z,96609.35
2018-03-24T00:40:14.838Z,96614.94
2018-03-24T00:40:46.466Z,96610.33
2018-03-24T00:41:18.098Z,96608.25
2018-03-24T00:41:49.722Z,96610.40
2018-03-24T00:42:21.342Z,96612.97
2018-03-24T00:42:52.970Z,96607.04
2018-03-24T00:43:24.598Z,96610.00
2018-03-24T00:43:56.223Z,96609.20
2018-03-24T00:44:27.845Z,96607.04
2018-03-24T00:44:59.470Z,96605.74
2018-03-24T00:45:31.099Z,96605.74
2018-03-24T00:46:02.730Z,96610.86
2018-03-24T00:46:34.354Z,96612.53
2018-03-24T00:47:05.981Z,96603.64
2018-03-24T00:47:37.605Z,96604.13
2018-03-24T00:48:09.294Z,96602.90
2018-03-24T00:48:40.918Z,96603.81
2018-03-24T00:49:12.541Z,96607.23
2018-03-24T00:49:44.169Z,96602.25
2018-03-24T00:50:15.795Z,96605.20
2018-03-24T00:50:47.432Z,96609.00
2018-03-24T00:51:19.062Z,96610.34
2018-03-24T00:51:50.690Z,96608.20
2018-03-24T00:52:22.322Z,96610.81
2018-03-24T00:52:53.958Z,96607.42
2018-03-24T00:53:25.650Z,96613.28
2018-03-24T00:53:57.273Z,96607.34
2018-03-24T00:54:28.897Z,96609.02
2018-03-24T00:55:00.518Z,96606.08
2018-03-24T00:55:32.145Z,96609.44
2018-03-24T00:56:03.770Z,96610.27
2018-03-24T00:56:35.414Z,96611.08
2018-03-24T00:57:07.058Z,96607.19
2018-03-24T00:57:38.686Z,96607.53
2018-03-24T00:58:10.318Z,96607.39
2018-03-24T00:58:42.014Z,96609.11
2018-03-24T00:59:13.656Z,96603.03
2018-03-24T00:59:45.282Z,96601.17
2018-03-24T01:00:16.927Z,96602.08
2018-03-24T01:00:48.549Z,96596.05
2018-03-24T01:01:20.175Z,96608.28
2018-03-24T01:01:51.812Z,96600.93
2018-03-24T01:02:23.446Z,96600.52
2018-03-24T01:02:55.079Z,96599.97
2018-03-24T01:03:26.706Z,96599.45
2018-03-24T01:03:58.655Z,96598.67
2018-03-24T01:04:30.277Z,96597.42
2018-03-24T01:05:01.915Z,96599.02
2018-03-24T01:05:33.554Z,96594.86
2018-03-24T01:06:05.180Z,96597.30
2018-03-24T01:06:36.815Z,96595.00
2018-03-24T01:07:08.442Z,96598.27
2018-03-24T01:07:40.070Z,96600.81
2018-03-24T01:08:11.699Z,96585.41
2018-03-24T01:08:43.330Z,96587.73
2018-03-24T01:09:15.020Z,96587.73
2018-03-24T01:09:46.651Z,96587.30
2018-03-24T01:10:18.274Z,96590.27
2018-03-24T01:10:49.901Z,96588.56
2018-03-24T01:11:21.531Z,96584.34
2018-03-24T01:11:53.158Z,96584.77
2018-03-24T01:12:24.781Z,96586.05
2018-03-24T01:12:56.405Z,96583.38
2018-03-24T01:13:28.034Z,96588.41
2018-03-24T01:13:59.666Z,96588.09
2018-03-24T01:14:31.356Z,96583.80
2018-03-24T01:15:02.986Z,96580.21
2018-03-24T01:15:34.615Z,96587.45
2018-03-24T01:16:06.238Z,96585.70
2018-03-24T01:16:37.867Z,96586.55
2018-03-24T01:17:09.503Z,96583.67
2018-03-24T01:17:41.130Z,96585.37
2018-03-24T01:18:12.754Z,96583.23
2018-03-24T01:18:44.386Z,96580.73
2018-03-24T01:19:16.011Z,96581.96
2018-03-24T01:19:47.633Z,96578.34
2018-03-24T01:20:19.258Z,96579.67
2018-03-24T01:20:50.882Z,96580.58
2018-03-24T01:21:22.511Z,96581.00
2018-03-24T01:21:54.141Z,96578.91
2018-03-24T01:22:25.771Z,96579.77
2018-03-24T01:22:57.393Z,96581.42
2018-03-24T01:23:29.302Z,96574.26
2018-03-24T01:24:00.926Z,96576.31
2018-03-24T01:24:32.550Z,96574.55
2018-03-24T01:25:04.242Z,96577.02
2018-03-24T01:25:35.865Z,96575.38
2018-03-24T01:26:07.490Z,96579.03
2018-03-24T01:26:39.126Z,96571.80
2018-03-24T01:27:10.749Z,96569.22
2018-03-24T01:27:42.373Z,96573.17
2018-03-24T01:28:13.999Z,96571.75
2018-03-24T01:28:45.630Z,96572.50
2018-03-24T01:29:17.270Z,96568.67
2018-03-24T01:29:48.903Z,96568.75
2018-03-24T01:30:20.595Z,96577.70
2018-03-24T01:30:52.222Z,96578.91
2018-03-24T01:31:23.850Z,96575.94
2018-03-24T01:31:55.476Z,96581.41
2018-03-24T01:32:27.097Z,96579.30
2018-03-24T01:32:58.733Z,96577.50
2018-03-24T01:33:30.361Z,96575.03
2018-03-24T01:34:01.986Z,96569.06
2018-03-24T01:34:33.614Z,96573.78
2018-03-24T01:35:05.246Z,96571.72
2018-03-24T01:35:36.938Z,96569.66
2018-03-24T01:36:08.563Z,96572.70
2018-03-24T01:36:40.189Z,96570.59
2018-03-24T01:37:11.825Z,96569.37
2018-03-24T01:37:43.457Z,96567.11
2018-03-24T01:38:15.077Z,96568.52
2018-03-24T01:38:46.706Z,96569.86
2018-03-24T01:39:18.326Z,96568.61
2018-03-24T01:39:49.956Z,96568.92
2018-03-24T01:40:21.578Z,96567.31
2018-03-24T01:40:53.270Z,96574.45
2018-03-24T01:41:24.894Z,96571.55
2018-03-24T01:41:56.517Z,96574.20
2018-03-24T01:42:28.142Z,96569.55
2018-03-24T01:42:59.774Z,96567.88
2018-03-24T01:43:31.510Z,96574.33
2018-03-24T01:44:03.134Z,96575.63
2018-03-24T01:44:34.758Z,96570.06
2018-03-24T01:45:06.384Z,96576.49
2018-03-24T01:45:38.018Z,96575.19
2018-03-24T01:46:09.706Z,96574.86
2018-03-24T01:46:41.338Z,96571.22
2018-03-24T01:47:12.962Z,96579.33
2018-03-24T01:47:44.590Z,96572.63
2018-03-24T01:48:16.220Z,96574.02
2018-03-24T01:48:47.850Z,96571.09
2018-03-24T01:49:19.483Z,96571.52
2018-03-24T01:49:51.105Z,96572.79
2018-03-24T01:50:22.730Z,96572.45
2018-03-24T01:50:54.366Z,96572.03
2018-03-24T01:51:26.053Z,96567.47
2018-03-24T01:51:57.674Z,96567.97
2018-03-24T01:52:29.298Z,96570.59
2018-03-24T01:53:00.921Z,96562.26
2018-03-24T01:53:32.545Z,96571.28
2018-03-24T01:54:04.170Z,96567.52
2018-03-24T01:54:35.794Z,96565.45
2018-03-24T01:55:07.427Z,96572.38
2018-03-24T01:55:39.050Z,96567.38
2018-03-24T01:56:10.674Z,96567.36
2018-03-24T01:56:42.382Z,96566.96
2018-03-24T01:57:14.006Z,96563.59
2018-03-24T01:57:45.634Z,96564.93
2018-03-24T01:58:17.271Z,96562.80
2018-03-24T01:58:48.899Z,96568.33
2018-03-24T01:59:20.526Z,96560.73
2018-03-24T01:59:52.159Z,96560.47
2018-03-24T02:00:23.786Z,96558.36
2018-03-24T02:00:55.414Z,96564.66
2018-03-24T02:01:27.038Z,96563.37
2018-03-24T02:01:58.743Z,96562.52
2018-03-24T02:02:30.387Z,96565.51
2018-03-24T02:03:02.017Z,96566.42
2018-03-24T02:03:33.643Z,96560.05
2018-03-24T02:04:05.270Z,96565.09
2018-03-24T02:04:36.898Z,96562.86
2018-03-24T02:05:08.526Z,96556.16
2018-03-24T02:05:40.150Z,96559.55
2018-03-24T02:06:11.779Z,96564.67
2018-03-24T02:06:43.402Z,96567.70
2018-03-24T02:07:15.091Z,96564.22
2018-03-24T02:07:46.723Z,96566.00
2018-03-24T02:08:18.346Z,96555.44
2018-03-24T02:08:49.974Z,96565.59
2018-03-24T02:09:21.609Z,96563.50
2018-03-24T02:09:53.234Z,96559.67
2018-03-24T02:10:24.858Z,96568.13
2018-03-24T02:10:56.481Z,96565.16
2018-03-24T02:11:28.106Z,96561.23
2018-03-24T02:11:59.739Z,96557.42
2018-03-24T02:12:31.430Z,96564.97
2018-03-24T02:13:03.054Z,96561.17
2018-03-24T02:13:34.684Z,96559.14
2018-03-24T02:14:06.315Z,96562.52
2018-03-24T02:14:37.941Z,96557.86
2018-03-24T02:15:09.562Z,96564.61
2018-03-24T02:15:41.203Z,96561.67
2018-03-24T02:16:12.831Z,96557.52
2018-03-24T02:16:44.453Z,96559.66
2018-03-24T02:17:16.145Z,96558.82
2018-03-24T02:17:47.843Z,96560.09
2018-03-24T02:18:19.471Z,96563.06
2018-03-24T02:18:51.099Z,96560.48
2018-03-24T02:19:22.729Z,96557.19
2018-03-24T02:19:54.358Z,96559.19
2018-03-24T02:20:26.002Z,96559.55
2018-03-24T02:21:00.150Z,96565.39
2018-03-24T02:21:31.798Z,96558.09
2018-03-24T02:22:03.422Z,96565.66
2018-03-24T02:22:35.046Z,96561.84
2018-03-24T02:23:06.730Z,96555.95
2018-03-24T02:23:38.349Z,96557.06
2018-03-24T02:24:09.978Z,96553.72
2018-03-24T02:24:43.608Z,96559.93
2018-03-24T02:25:15.246Z,96556.45
2018-03-24T02:25:46.886Z,96559.66
2018-03-24T02:26:18.527Z,96553.80
2018-03-24T02:26:50.151Z,96552.52
2018-03-24T02:27:21.778Z,96558.33
2018-03-24T02:27:53.406Z,96558.75
2018-03-24T02:28:25.099Z,96556.64
2018-03-24T02:28:56.730Z,96564.70
2018-03-24T02:29:28.355Z,96558.25
2018-03-24T02:29:59.982Z,96557.81
2018-03-24T02:30:31.622Z,96555.83
2018-03-24T02:31:03.251Z,96554.00
2018-03-24T02:31:34.877Z,96557.99
2018-03-24T02:32:06.511Z,96561.34
2018-03-24T02:32:38.135Z,96557.08
2018-03-24T02:33:09.763Z,96560.00
2018-03-24T02:33:41.395Z,96560.34
2018-03-24T02:34:13.024Z,96560.36
2018-03-24T02:34:44.654Z,96564.19
2018-03-24T02:35:16.284Z,96563.13
2018-03-24T02:35:47.931Z,96568.63
2018-03-24T02:36:19.564Z,96561.31
2018-03-24T02:36:51.215Z,96559.19
2018-03-24T02:37:22.841Z,96559.80
2018-03-24T02:37:54.471Z,96561.38
2018-03-24T02:38:26.103Z,96562.34
2018-03-24T02:38:57.800Z,96556.91
2018-03-24T02:39:29.439Z,96561.91
2018-03-24T02:40:01.062Z,96557.73
2018-03-24T02:40:32.723Z,96557.14
2018-03-24T02:41:04.356Z,96553.20
2018-03-24T02:41:35.987Z,96559.50
2018-03-24T02:42:07.610Z,96557.05
2018-03-24T02:42:39.243Z,96554.28
2018-03-24T02:43:10.875Z,96548.55
2018-03-24T02:43:42.506Z,96540.09
2018-03-24T02:44:14.198Z,96556.44
2018-03-24T02:44:45.826Z,96555.64
2018-03-24T02:45:17.450Z,96552.70
2018-03-24T02:45:49.077Z,96556.96
2018-03-24T02:46:20.706Z,96551.44
2018-03-24T02:46:52.338Z,96554.29
2018-03-24T02:47:23.979Z,96551.00
2018-03-24T02:47:55.638Z,96556.08
2018-03-24T02:48:27.278Z,96555.17
2018-03-24T02:48:58.908Z,96555.17
2018-03-24T02:49:30.602Z,96558.11
2018-03-24T02:50:02.246Z,96552.05
2018-03-24T02:50:33.882Z,96558.72
2018-03-24T02:51:05.510Z,96555.86
2018-03-24T02:51:37.134Z,96554.14
2018-03-24T02:52:08.758Z,96554.53
2018-03-24T02:52:40.386Z,96555.06
2018-03-24T02:53:12.014Z,96556.81
2018-03-24T02:53:43.645Z,96551.72
2018-03-24T02:54:15.275Z,96545.28
2018-03-24T02:54:46.982Z,96550.39
2018-03-24T02:55:18.611Z,96551.72
2018-03-24T02:55:50.234Z,96548.85
2018-03-24T02:56:21.862Z,96547.52
2018-03-24T02:56:53.485Z,96547.11
2018-03-24T02:57:25.106Z,96546.62
2018-03-24T02:57:56.734Z,96551.77
2018-03-24T02:58:28.362Z,96548.06
2018-03-24T02:58:59.996Z,96554.75
2018-03-24T02:59:31.626Z,96557.72
2018-03-24T03:00:03.318Z,96550.15
2018-03-24T03:00:34.947Z,96552.28
2018-03-24T03:01:06.575Z,96550.06
2018-03-24T03:01:38.216Z,96552.72
2018-03-24T03:02:09.852Z,96553.47
2018-03-24T03:02:41.477Z,96547.64
2018-03-24T03:03:13.107Z,96553.63
2018-03-24T03:03:44.742Z,96545.19
2018-03-24T03:04:16.370Z,96551.62
2018-03-24T03:04:47.999Z,96546.23
2018-03-24T03:05:19.690Z,96547.82
2018-03-24T03:05:51.328Z,96550.89
2018-03-24T03:06:22.951Z,96546.55
2018-03-24T03:06:54.582Z,96544.78
2018-03-24T03:07:26.210Z,96548.28
2018-03-24T03:07:57.834Z,96545.25
2018-03-24T03:08:29.462Z,96543.90
2018-03-24T03:09:01.103Z,96548.14
2018-03-24T03:09:32.726Z,96544.00
2018-03-24T03:10:04.354Z,96540.69
2018-03-24T03:10:35.982Z,96536.39
2018-03-24T03:11:07.610Z,96540.32
2018-03-24T03:11:39.238Z,96538.58
2018-03-24T03:12:10.862Z,96535.28
2018-03-24T03:12:42.486Z,96534.44
2018-03-24T03:13:14.121Z,96534.47
2018-03-24T03:13:45.749Z,96533.22
2018-03-24T03:14:17.375Z,96539.14
2018-03-24T03:14:48.998Z,96532.45
2018-03-24T03:15:20.622Z,96531.63
2018-03-24T03:15:52.332Z,96536.38
2018-03-24T03:16:23.954Z,96531.38
2018-03-24T03:16:55.578Z,96535.20
2018-03-24T03:17:27.206Z,96533.39
2018-03-24T03:17:58.833Z,96538.41
2018-03-24T03:18:30.468Z,96532.85
2018-03-24T03:19:02.115Z,96533.30
2018-03-24T03:19:33.739Z,96536.36
2018-03-24T03:20:05.362Z,96531.63
2018-03-24T03:20:36.994Z,96532.90
2018-03-24T03:21:08.687Z,96532.12
2018-03-24T03:21:40.310Z,96533.85
2018-03-24T03:22:11.943Z,96534.27
2018-03-24T03:22:43.575Z,96533.00
2018-03-24T03:23:15.203Z,96532.27
2018-03-24T03:23:46.830Z,96534.71
2018-03-24T03:24:18.454Z,96539.05
2018-03-24T03:24:50.082Z,96534.41
2018-03-24T03:25:21.702Z,96530.11
2018-03-24T03:25:53.327Z,96534.71
2018-03-24T03:26:25.015Z,96536.92
2018-03-24T03:26:56.650Z,96537.85
2018-03-24T03:27:28.274Z,96540.52
2018-03-24T03:27:59.934Z,96537.14
2018-03-24T03:28:31.566Z,96532.87
2018-03-24T03:29:03.189Z,96535.34
2018-03-24T03:29:34.823Z,96533.73
2018-03-24T03:30:06.468Z,96538.81
2018-03-24T03:30:54.904Z,96536.16
2018-03-24T03:31:26.619Z,96536.20
2018-03-24T03:32:02.798Z,96529.83
2018-03-24T03:32:34.435Z,96530.23
2018-03-24T03:33:06.082Z,96536.11
2018-03-24T03:33:37.715Z,96539.48
2018-03-24T03:34:09.341Z,96540.78
2018-03-24T03:34:40.966Z,96537.88
2018-03-24T03:35:12.586Z,96537.06
2018-03-24T03:35:44.210Z,96538.34
2018-03-24T03:36:15.839Z,96537.89
2018-03-24T03:36:47.539Z,96534.05
2018-03-24T03:37:19.163Z,96539.59
2018-03-24T03:37:50.785Z,96536.26
2018-03-24T03:38:22.411Z,96540.84
2018-03-24T03:38:54.042Z,96534.41
2018-03-24T03:39:25.665Z,96536.11
2018-03-24T03:39:57.290Z,96539.61
2018-03-24T03:40:28.918Z,96537.92
2018-03-24T03:41:00.538Z,96543.43
2018-03-24T03:41:32.162Z,96534.91
2018-03-24T03:42:03.859Z,96538.30
2018-03-24T03:42:35.487Z,96533.14
2018-03-24T03:43:07.110Z,96533.14
2018-03-24T03:43:38.734Z,96540.84
2018-03-24T03:44:10.353Z,96540.77
2018-03-24T03:44:41.984Z,96534.56
2018-03-24T03:45:13.614Z,96533.30
2018-03-24T03:45:45.238Z,96538.44
2018-03-24T03:46:16.865Z,96538.93
2018-03-24T03:46:48.506Z,96533.36
2018-03-24T03:47:20.202Z,96532.87
2018-03-24T03:47:51.830Z,96534.83
2018-03-24T03:48:23.453Z,96530.59
2018-03-24T03:48:55.082Z,96528.86
2018-03-24T03:49:26.710Z,96530.74
2018-03-24T03:49:58.375Z,96533.73
2018-03-24T03:50:30.006Z,96532.87
2018-03-24T03:51:01.630Z,96531.50
2018-03-24T03:51:33.270Z,96531.02
2018-03-24T03:52:04.901Z,96535.64
2018-03-24T03:52:36.607Z,96527.19
2018-03-24T03:53:08.230Z,96532.60
2018-03-24T03:53:39.857Z,96528.83
2018-03-24T03:54:11.486Z,96532.68
2018-03-24T03:54:43.114Z,96533.53
2018-03-24T03:55:14.742Z,96531.38
2018-03-24T03:55:46.375Z,96527.50
2018-03-24T03:56:17.999Z,96531.63
2018-03-24T03:56:49.630Z,96529.47
2018-03-24T03:57:21.254Z,96527.16
2018-03-24T03:57:52.995Z,96531.19
2018-03-24T03:58:24.626Z,96528.55
2018-03-24T03:58:56.255Z,96526.53
2018-03-24T03:59:27.882Z,96526.11
2018-03-24T03:59:59.506Z,96523.88
2018-03-24T04:00:31.130Z,96528.52
2018-03-24T04:01:02.758Z,96526.36
2018-03-24T04:01:34.386Z,96531.45
2018-03-24T04:02:06.015Z,96530.52
2018-03-24T04:02:37.646Z,96530.50
2018-03-24T04:03:09.338Z,96529.66
2018-03-24T04:03:40.963Z,96531.28
2018-03-24T04:04:12.608Z,96529.14
2018-03-24T04:04:44.245Z,96534.66
2018-03-24T04:05:15.874Z,96527.25
2018-03-24T04:05:47.502Z,96532.70
2018-03-24T04:06:19.131Z,96530.69
2018-03-24T04:06:50.754Z,96529.75
2018-03-24T04:07:22.382Z,96527.63
2018-03-24T04:07:54.010Z,96533.45
2018-03-24T04:08:25.698Z,96534.09
2018-03-24T04:08:57.327Z,96534.86
2018-03-24T04:09:28.953Z,96529.22
2018-03-24T04:10:00.574Z,96533.55
2018-03-24T04:10:32.203Z,96529.33
2018-03-24T04:11:03.834Z,96528.13
2018-03-24T04:11:35.458Z,96530.31
2018-03-24T04:12:07.087Z,96528.13
2018-03-24T04:12:38.710Z,96534.84
2018-03-24T04:13:10.339Z,96525.50
2018-03-24T04:13:42.026Z,96526.31
2018-03-24T04:14:13.654Z,96526.98
2018-03-24T04:14:45.310Z,96483.49
2018-03-24T04:15:16.934Z,96523.66
2018-03-24T04:15:48.569Z,96528.73
2018-03-24T04:16:20.195Z,96520.48
2018-03-24T04:16:51.826Z,96528.00
2018-03-24T04:17:23.454Z,96533.15
2018-03-24T04:17:55.082Z,96530.31
2018-03-24T04:18:26.706Z,96524.83
2018-03-24T04:18:58.399Z,96534.66
2018-03-24T04:19:30.089Z,96535.91
2018-03-24T04:20:01.682Z,96527.44
2018-03-24T04:20:33.314Z,96533.02
2018-03-24T04:21:04.937Z,96529.19
2018-03-24T04:21:36.565Z,96532.00
2018-03-24T04:22:08.199Z,96533.87
2018-03-24T04:22:39.822Z,96532.22
2018-03-24T04:23:11.445Z,96525.44
2018-03-24T04:23:43.066Z,96528.38
2018-03-24T04:24:14.765Z,96526.58
2018-03-24T04:24:46.386Z,96526.70
2018-03-24T04:25:18.010Z,96523.36
2018-03-24T04:25:49.634Z,96523.48
2018-03-24T04:26:21.267Z,96524.39
2018-03-24T04:26:52.899Z,96516.33
2018-03-24T04:27:24.525Z,96521.40
2018-03-24T04:27:56.158Z,96518.97
2018-03-24T04:28:27.786Z,96521.58
2018-03-24T04:28:59.414Z,96524.27
2018-03-24T04:29:31.116Z,96523.56
2018-03-24T04:30:02.746Z,96520.25
2018-03-24T04:30:34.384Z,96523.31
2018-03-24T04:31:06.013Z,96517.81
2018-03-24T04:31:37.648Z,96522.02
2018-03-24T04:32:09.274Z,96525.87
2018-03-24T04:32:40.905Z,96521.66
2018-03-24T04:33:12.533Z,96523.00
2018-03-24T04:33:44.154Z,96522.29
2018-03-24T04:34:15.778Z,96520.28
2018-03-24T04:34:47.407Z,96518.27
2018-03-24T04:35:19.030Z,96519.94
2018-03-24T04:35:50.662Z,96518.39
2018-03-24T04:36:22.286Z,96525.20
2018-03-24T04:36:53.914Z,96520.64
2018-03-24T04:37:25.542Z,96524.02
2018-03-24T04:37:57.170Z,96517.53
2018-03-24T04:38:28.798Z,96520.16
2018-03-24T04:39:00.426Z,96522.31
2018-03-24T04:39:32.082Z,96518.92
2018-03-24T04:40:03.776Z,96513.42
2018-03-24T04:40:35.398Z,96519.86
2018-03-24T04:41:07.031Z,96518.15
2018-03-24T04:41:38.663Z,96516.89
2018-03-24T04:42:10.294Z,96517.77
2018-03-24T04:42:41.922Z,96521.66
2018-03-24T04:43:13.559Z,96517.95
2018-03-24T04:43:45.182Z,96520.54
2018-03-24T04:44:16.806Z,96525.22
2018-03-24T04:44:48.434Z,96522.28
2018-03-24T04:45:20.144Z,96518.85
2018-03-24T04:45:51.775Z,96515.22
2018-03-24T04:46:23.407Z,96523.19
2018-03-24T04:46:55.039Z,96525.37
2018-03-24T04:47:26.666Z,96518.59
2018-03-24T04:47:58.302Z,96526.27
2018-03-24T04:48:29.927Z,96516.94
2018-03-24T04:49:01.555Z,96519.06
2018-03-24T04:49:33.190Z,96522.50
2018-03-24T04:50:04.829Z,96520.44
2018-03-24T04:50:36.518Z,96525.53
2018-03-24T04:51:08.141Z,96526.37
2018-03-24T04:51:39.770Z,96520.41
2018-03-24T04:52:11.402Z,96523.80
2018-03-24T04:52:43.049Z,96525.51
2018-03-24T04:53:14.673Z,96523.42
2018-03-24T04:53:46.298Z,96529.01
2018-03-24T04:54:17.922Z,96525.61
2018-03-24T04:54:49.550Z,96523.91
2018-03-24T04:55:21.174Z,96531.55
2018-03-24T04:55:52.863Z,96528.66
2018-03-24T04:56:24.490Z,96528.61
2018-03-24T04:56:56.114Z,96526.97
2018-03-24T04:57:27.738Z,96525.27
2018-03-24T04:57:59.362Z,96527.71
2018-03-24T04:58:30.986Z,96526.80
2018-03-24T04:59:02.609Z,96525.48
2018-03-24T04:59:34.238Z,96526.69
2018-03-24T05:00:05.862Z,96527.01
2018-03-24T05:00:37.490Z,96527.81
2018-03-24T05:01:09.178Z,96523.90
2018-03-24T05:01:40.815Z,96520.38
2018-03-24T05:02:12.442Z,96524.88
2018-03-24T05:02:44.067Z,96524.77
2018-03-24T05:03:15.725Z,96519.63
2018-03-24T05:03:47.354Z,96525.55
2018-03-24T05:04:18.986Z,96525.08
2018-03-24T05:04:50.610Z,96525.72
2018-03-24T05:05:22.234Z,96527.39
2018-03-24T05:05:53.861Z,96528.22
2018-03-24T05:06:25.552Z,96529.47
2018-03-24T05:06:57.174Z,96525.11
2018-03-24T05:07:28.798Z,96525.97
2018-03-24T05:08:00.422Z,96533.61
2018-03-24T05:08:32.050Z,96533.09
2018-03-24T05:09:03.686Z,96536.04
2018-03-24T05:09:35.315Z,96529.61
2018-03-24T05:10:06.946Z,96535.96
2018-03-24T05:10:38.574Z,96532.06
2018-03-24T05:11:10.203Z,96537.62
2018-03-24T05:11:41.830Z,96533.93
2018-03-24T05:12:13.458Z,96538.19
2018-03-24T05:12:45.086Z,96538.44
2018-03-24T05:13:16.715Z,96538.85
2018-03-24T05:13:48.339Z,96532.95
2018-03-24T05:14:20.058Z,96533.52
2018-03-24T05:14:51.682Z,96538.44
2018-03-24T05:15:23.302Z,96535.94
2018-03-24T05:15:54.931Z,96541.89
2018-03-24T05:16:26.562Z,96544.86
2018-03-24T05:16:58.274Z,96536.80
2018-03-24T05:17:29.902Z,96540.42
2018-03-24T05:18:01.526Z,96543.27
2018-03-24T05:18:33.151Z,96536.35
2018-03-24T05:19:04.782Z,96536.35
2018-03-24T05:19:36.485Z,96539.68
2018-03-24T05:20:08.114Z,96544.36
2018-03-24T05:20:39.746Z,96540.52
2018-03-24T05:21:11.379Z,96544.78
2018-03-24T05:21:43.007Z,96534.88
2018-03-24T05:22:14.718Z,96548.60
2018-03-24T05:22:46.382Z,96548.12
2018-03-24T05:23:18.011Z,96547.64
2018-03-24T05:23:49.643Z,96548.45
2018-03-24T05:24:21.266Z,96551.13
2018-03-24T05:24:52.886Z,96552.80
2018-03-24T05:25:24.522Z,96550.56
2018-03-24T05:25:56.151Z,96550.13
2018-03-24T05:26:27.783Z,96547.63
2018-03-24T05:26:59.415Z,96547.94
2018-03-24T05:27:31.111Z,96547.16
2018-03-24T05:28:02.829Z,96549.31
2018-03-24T05:28:34.458Z,96550.06
2018-03-24T05:29:06.082Z,96553.84
2018-03-24T05:29:37.714Z,96549.19
2018-03-24T05:30:09.338Z,96553.02
2018-03-24T05:30:40.966Z,96550.02
2018-03-24T05:31:12.596Z,96553.97
2018-03-24T05:31:44.222Z,96556.52
2018-03-24T05:32:15.845Z,96553.58
2018-03-24T05:32:47.534Z,96559.84
2018-03-24T05:33:19.158Z,96552.94
2018-03-24T05:33:50.794Z,96553.45
2018-03-24T05:34:22.417Z,96558.58
2018-03-24T05:34:54.038Z,96560.73
2018-03-24T05:35:25.662Z,96556.91
2018-03-24T05:35:57.289Z,96561.10
2018-03-24T05:36:28.914Z,96556.50
2018-03-24T05:37:00.544Z,96560.00
2018-03-24T05:37:32.177Z,96556.62
2018-03-24T05:38:03.880Z,96557.16
2018-03-24T05:38:35.510Z,96559.75
2018-03-24T05:39:07.190Z,96552.96
2018-03-24T05:39:38.801Z,96552.08
2018-03-24T05:40:10.438Z,96554.11
2018-03-24T05:40:42.074Z,96551.62
2018-03-24T05:41:13.698Z,96549.56
2018-03-24T05:41:45.331Z,96554.71
2018-03-24T05:42:16.957Z,96548.36
2018-03-24T05:42:48.587Z,96550.91
2018-03-24T05:43:20.291Z,96551.38
2018-03-24T05:43:51.923Z,96546.64
2018-03-24T05:44:23.550Z,96550.38
2018-03-24T05:44:55.177Z,96547.13
2018-03-24T05:45:26.807Z,96543.84
2018-03-24T05:45:58.441Z,96547.21
2018-03-24T05:46:30.067Z,96544.76
2018-03-24T05:47:01.699Z,96541.77
2018-03-24T05:47:33.321Z,96542.92
2018-03-24T05:48:04.943Z,96545.08
2018-03-24T05:48:36.643Z,96548.06
2018-03-24T05:49:08.279Z,96550.27
2018-03-24T05:49:39.910Z,96541.89
2018-03-24T05:50:11.534Z,96541.37
2018-03-24T05:50:43.159Z,96543.70
2018-03-24T05:51:14.782Z,96550.98
2018-03-24T05:51:46.406Z,96554.44
2018-03-24T05:52:18.030Z,96553.60
2018-03-24T05:52:49.654Z,96551.67
2018-03-24T05:53:21.282Z,96555.85
2018-03-24T05:53:52.974Z,96553.90
2018-03-24T05:54:24.598Z,96554.28
2018-03-24T05:54:56.223Z,96553.28
2018-03-24T05:55:27.859Z,96548.13
2018-03-24T05:55:59.491Z,96547.38
2018-03-24T05:56:31.118Z,96556.31
2018-03-24T05:57:02.748Z,96552.54
2018-03-24T05:57:34.374Z,96553.73
2018-03-24T05:58:06.034Z,96551.73
2018-03-24T05:58:37.662Z,96552.22
2018-03-24T05:59:09.377Z,96549.23
2018-03-24T05:59:41.003Z,96549.77
2018-03-24T06:00:12.646Z,96539.42
2018-03-24T06:00:44.274Z,96559.56
2018-03-24T06:01:15.902Z,96561.67
2018-03-24T06:01:47.526Z,96557.97
2018-03-24T06:02:19.164Z,96551.70
2018-03-24T06:02:50.794Z,96564.11
2018-03-24T06:03:22.418Z,96566.70
2018-03-24T06:03:54.042Z,96563.39
2018-03-24T06:04:25.742Z,96562.09
2018-03-24T06:04:57.390Z,96561.68
2018-03-24T06:05:29.022Z,96568.56
2018-03-24T06:06:00.646Z,96566.05
2018-03-24T06:06:32.267Z,96567.28
2018-03-24T06:07:03.894Z,96561.27
2018-03-24T06:07:35.522Z,96566.34
2018-03-24T06:08:07.150Z,96567.99
2018-03-24T06:08:38.790Z,96568.73
2018-03-24T06:09:10.415Z,96562.00
2018-03-24T06:09:42.102Z,96563.16
2018-03-24T06:10:13.722Z,96563.25
2018-03-24T06:10:45.347Z,96565.84
2018-03-24T06:11:17.028Z,96564.73
2018-03-24T06:11:48.630Z,96563.92